sensor_id;sensor_type;location;lat;lon;timestamp;P1;durP1;ratioP1;P2;durP2;ratioP2
11703;SDS011;5908;51.354;7.458;2023-05-10T00:00:22;7.03;;;5.50;;
11703;SDS011;5908;51.354;7.458;2023-05-10T00:02:49;3.95;;;2.30;;
11703;SDS011;5908;51.354;7.458;2023-05-10T00:05:16;3.58;;;2.17;;
11703;SDS011;5908;51.354;7.458;2023-05-10T00:07:43;6.90;;;5.13;;
11703;SDS011;5908;51.354;7.458;2023-05-10T00:10:11;4.10;;;2.55;;
11703;SDS011;5908;51.354;7.458;2023-05-10T00:12:38;2.97;;;1.88;;
11703;SDS011;5908;51.354;7.458;2023-05-10T00:15:05;2.88;;;2.30;;
11703;SDS011;5908;51.354;7.458;2023-05-10T00:17:33;6.32;;;3.72;;
11703;SDS011;5908;51.354;7.458;2023-05-10T00:20:00;2.88;;;2.40;;
11703;SDS011;5908;51.354;7.458;2023-05-10T00:22:27;3.50;;;2.75;;
11703;SDS011;5908;51.354;7.458;2023-05-10T00:24:53;8.05;;;5.70;;
11703;SDS011;5908;51.354;7.458;2023-05-10T00:27:22;4.73;;;3.73;;
11703;SDS011;5908;51.354;7.458;2023-05-10T00:29:48;4.57;;;2.60;;
11703;SDS011;5908;51.354;7.458;2023-05-10T00:32:15;4.38;;;3.08;;
11703;SDS011;5908;51.354;7.458;2023-05-10T00:34:42;3.13;;;1.92;;
11703;SDS011;5908;51.354;7.458;2023-05-10T00:37:09;4.10;;;3.20;;
11703;SDS011;5908;51.354;7.458;2023-05-10T00:39:36;3.47;;;2.40;;
11703;SDS011;5908;51.354;7.458;2023-05-10T00:42:03;6.80;;;5.32;;
11703;SDS011;5908;51.354;7.458;2023-05-10T00:44:31;4.18;;;3.33;;
11703;SDS011;5908;51.354;7.458;2023-05-10T00:46:58;4.45;;;2.45;;
11703;SDS011;5908;51.354;7.458;2023-05-10T00:49:25;5.68;;;3.90;;
11703;SDS011;5908;51.354;7.458;2023-05-10T00:51:52;3.08;;;1.88;;
11703;SDS011;5908;51.354;7.458;2023-05-10T00:54:19;3.37;;;2.17;;
11703;SDS011;5908;51.354;7.458;2023-05-10T00:56:46;4.30;;;3.00;;
11703;SDS011;5908;51.354;7.458;2023-05-10T00:59:14;6.63;;;4.20;;
11703;SDS011;5908;51.354;7.458;2023-05-10T01:01:44;8.53;;;6.47;;
11703;SDS011;5908;51.354;7.458;2023-05-10T01:04:12;4.78;;;3.92;;
11703;SDS011;5908;51.354;7.458;2023-05-10T01:06:39;4.47;;;2.73;;
11703;SDS011;5908;51.354;7.458;2023-05-10T01:09:06;5.97;;;4.77;;
11703;SDS011;5908;51.354;7.458;2023-05-10T01:11:33;6.78;;;5.07;;
11703;SDS011;5908;51.354;7.458;2023-05-10T01:14:01;6.30;;;4.13;;
11703;SDS011;5908;51.354;7.458;2023-05-10T01:16:29;6.25;;;4.25;;
11703;SDS011;5908;51.354;7.458;2023-05-10T01:18:59;8.23;;;5.65;;
11703;SDS011;5908;51.354;7.458;2023-05-10T01:21:27;6.20;;;3.83;;
11703;SDS011;5908;51.354;7.458;2023-05-10T01:27:13;5.83;;;3.60;;
11703;SDS011;5908;51.354;7.458;2023-05-10T01:30:01;6.20;;;4.37;;
11703;SDS011;5908;51.354;7.458;2023-05-10T01:32:42;6.50;;;4.30;;
11703;SDS011;5908;51.354;7.458;2023-05-10T01:35:16;7.53;;;4.40;;
11703;SDS011;5908;51.354;7.458;2023-05-10T01:37:50;10.20;;;4.93;;
11703;SDS011;5908;51.354;7.458;2023-05-10T01:40:26;7.90;;;4.15;;
11703;SDS011;5908;51.354;7.458;2023-05-10T01:43:00;7.72;;;5.38;;
11703;SDS011;5908;51.354;7.458;2023-05-10T01:45:28;9.20;;;4.95;;
11703;SDS011;5908;51.354;7.458;2023-05-10T01:48:02;8.20;;;5.00;;
11703;SDS011;5908;51.354;7.458;2023-05-10T01:50:32;8.60;;;5.20;;
11703;SDS011;5908;51.354;7.458;2023-05-10T01:53:01;7.65;;;4.80;;
11703;SDS011;5908;51.354;7.458;2023-05-10T01:55:32;8.23;;;5.05;;
11703;SDS011;5908;51.354;7.458;2023-05-10T01:58:02;8.63;;;5.97;;
11703;SDS011;5908;51.354;7.458;2023-05-10T02:00:33;8.20;;;5.20;;
11703;SDS011;5908;51.354;7.458;2023-05-10T02:03:04;10.03;;;5.70;;
11703;SDS011;5908;51.354;7.458;2023-05-10T02:05:33;10.40;;;5.63;;
11703;SDS011;5908;51.354;7.458;2023-05-10T02:08:01;9.30;;;6.47;;
11703;SDS011;5908;51.354;7.458;2023-05-10T02:10:32;8.40;;;5.45;;
11703;SDS011;5908;51.354;7.458;2023-05-10T02:13:00;8.95;;;6.20;;
11703;SDS011;5908;51.354;7.458;2023-05-10T02:15:28;12.50;;;6.83;;
11703;SDS011;5908;51.354;7.458;2023-05-10T02:17:56;10.43;;;7.30;;
11703;SDS011;5908;51.354;7.458;2023-05-10T02:20:27;11.67;;;7.30;;
11703;SDS011;5908;51.354;7.458;2023-05-10T02:22:56;10.87;;;6.40;;
11703;SDS011;5908;51.354;7.458;2023-05-10T02:25:24;11.33;;;7.20;;
11703;SDS011;5908;51.354;7.458;2023-05-10T02:27:52;12.43;;;7.40;;
11703;SDS011;5908;51.354;7.458;2023-05-10T02:30:22;13.03;;;7.13;;
11703;SDS011;5908;51.354;7.458;2023-05-10T02:32:50;11.50;;;7.32;;
11703;SDS011;5908;51.354;7.458;2023-05-10T02:35:18;10.50;;;7.50;;
11703;SDS011;5908;51.354;7.458;2023-05-10T02:37:46;10.23;;;7.78;;
11703;SDS011;5908;51.354;7.458;2023-05-10T02:40:14;10.10;;;6.47;;
11703;SDS011;5908;51.354;7.458;2023-05-10T02:42:43;10.47;;;7.10;;
11703;SDS011;5908;51.354;7.458;2023-05-10T02:45:13;7.93;;;5.97;;
11703;SDS011;5908;51.354;7.458;2023-05-10T02:47:42;8.50;;;6.00;;
11703;SDS011;5908;51.354;7.458;2023-05-10T02:50:09;8.20;;;6.47;;
11703;SDS011;5908;51.354;7.458;2023-05-10T02:52:39;7.37;;;5.57;;
11703;SDS011;5908;51.354;7.458;2023-05-10T02:55:12;6.33;;;5.10;;
11703;SDS011;5908;51.354;7.458;2023-05-10T02:57:43;8.93;;;5.97;;
11703;SDS011;5908;51.354;7.458;2023-05-10T03:00:17;7.80;;;5.85;;
11703;SDS011;5908;51.354;7.458;2023-05-10T03:02:44;8.23;;;6.28;;
11703;SDS011;5908;51.354;7.458;2023-05-10T03:05:10;9.55;;;7.70;;
11703;SDS011;5908;51.354;7.458;2023-05-10T03:07:37;7.07;;;5.68;;
11703;SDS011;5908;51.354;7.458;2023-05-10T03:10:04;9.10;;;6.87;;
11703;SDS011;5908;51.354;7.458;2023-05-10T03:12:37;11.20;;;7.10;;
11703;SDS011;5908;51.354;7.458;2023-05-10T03:15:13;9.30;;;7.13;;
11703;SDS011;5908;51.354;7.458;2023-05-10T03:17:46;11.43;;;8.43;;
11703;SDS011;5908;51.354;7.458;2023-05-10T03:20:20;11.77;;;8.57;;
11703;SDS011;5908;51.354;7.458;2023-05-10T03:22:51;14.83;;;9.93;;
11703;SDS011;5908;51.354;7.458;2023-05-10T03:25:22;14.87;;;10.87;;
11703;SDS011;5908;51.354;7.458;2023-05-10T03:27:51;15.07;;;10.47;;
11703;SDS011;5908;51.354;7.458;2023-05-10T03:30:18;16.48;;;10.82;;
11703;SDS011;5908;51.354;7.458;2023-05-10T03:32:45;14.07;;;9.97;;
11703;SDS011;5908;51.354;7.458;2023-05-10T03:35:12;16.20;;;11.02;;
11703;SDS011;5908;51.354;7.458;2023-05-10T03:37:39;16.65;;;10.70;;
11703;SDS011;5908;51.354;7.458;2023-05-10T03:40:06;16.27;;;10.70;;
11703;SDS011;5908;51.354;7.458;2023-05-10T03:42:34;15.43;;;10.55;;
11703;SDS011;5908;51.354;7.458;2023-05-10T03:45:02;19.17;;;12.70;;
11703;SDS011;5908;51.354;7.458;2023-05-10T03:47:29;17.23;;;11.10;;
11703;SDS011;5908;51.354;7.458;2023-05-10T03:49:56;22.03;;;14.13;;
11703;SDS011;5908;51.354;7.458;2023-05-10T03:52:23;21.90;;;14.03;;
11703;SDS011;5908;51.354;7.458;2023-05-10T03:54:50;17.23;;;12.10;;
11703;SDS011;5908;51.354;7.458;2023-05-10T03:57:17;18.63;;;12.20;;
11703;SDS011;5908;51.354;7.458;2023-05-10T03:59:43;17.80;;;11.10;;
11703;SDS011;5908;51.354;7.458;2023-05-10T04:02:11;17.10;;;11.00;;
11703;SDS011;5908;51.354;7.458;2023-05-10T04:04:38;20.20;;;12.03;;
11703;SDS011;5908;51.354;7.458;2023-05-10T04:07:05;18.07;;;11.53;;
11703;SDS011;5908;51.354;7.458;2023-05-10T04:09:32;18.73;;;11.10;;
11703;SDS011;5908;51.354;7.458;2023-05-10T04:11:59;19.77;;;12.90;;
11703;SDS011;5908;51.354;7.458;2023-05-10T04:14:27;17.40;;;10.53;;
11703;SDS011;5908;51.354;7.458;2023-05-10T04:16:54;18.77;;;11.77;;
11703;SDS011;5908;51.354;7.458;2023-05-10T04:19:22;20.90;;;11.63;;
11703;SDS011;5908;51.354;7.458;2023-05-10T04:21:49;19.63;;;12.93;;
11703;SDS011;5908;51.354;7.458;2023-05-10T04:24:16;21.57;;;14.33;;
11703;SDS011;5908;51.354;7.458;2023-05-10T04:26:42;21.67;;;13.83;;
11703;SDS011;5908;51.354;7.458;2023-05-10T04:29:10;23.50;;;14.37;;
11703;SDS011;5908;51.354;7.458;2023-05-10T04:31:37;22.35;;;13.43;;
11703;SDS011;5908;51.354;7.458;2023-05-10T04:34:03;26.13;;;15.97;;
11703;SDS011;5908;51.354;7.458;2023-05-10T04:36:32;22.65;;;14.18;;
11703;SDS011;5908;51.354;7.458;2023-05-10T04:39:00;24.90;;;15.00;;
11703;SDS011;5908;51.354;7.458;2023-05-10T04:41:28;20.98;;;13.65;;
11703;SDS011;5908;51.354;7.458;2023-05-10T04:43:55;23.00;;;14.00;;
11703;SDS011;5908;51.354;7.458;2023-05-10T04:46:22;23.97;;;14.80;;
11703;SDS011;5908;51.354;7.458;2023-05-10T04:48:49;22.63;;;14.40;;
11703;SDS011;5908;51.354;7.458;2023-05-10T04:51:15;24.10;;;14.80;;
11703;SDS011;5908;51.354;7.458;2023-05-10T04:53:43;26.20;;;16.40;;
11703;SDS011;5908;51.354;7.458;2023-05-10T04:56:10;26.65;;;16.13;;
11703;SDS011;5908;51.354;7.458;2023-05-10T04:58:37;28.17;;;16.53;;
11703;SDS011;5908;51.354;7.458;2023-05-10T05:01:05;26.17;;;15.57;;
11703;SDS011;5908;51.354;7.458;2023-05-10T05:03:32;25.17;;;16.63;;
11703;SDS011;5908;51.354;7.458;2023-05-10T05:05:59;27.13;;;17.33;;
11703;SDS011;5908;51.354;7.458;2023-05-10T05:08:26;30.13;;;18.05;;
11703;SDS011;5908;51.354;7.458;2023-05-10T05:10:54;30.63;;;18.50;;
11703;SDS011;5908;51.354;7.458;2023-05-10T05:13:21;33.95;;;19.52;;
11703;SDS011;5908;51.354;7.458;2023-05-10T05:15:47;32.33;;;19.80;;
11703;SDS011;5908;51.354;7.458;2023-05-10T05:18:14;35.67;;;22.00;;
11703;SDS011;5908;51.354;7.458;2023-05-10T05:20:41;35.45;;;19.65;;
11703;SDS011;5908;51.354;7.458;2023-05-10T05:23:08;35.30;;;21.27;;
11703;SDS011;5908;51.354;7.458;2023-05-10T05:25:35;37.78;;;22.45;;
11703;SDS011;5908;51.354;7.458;2023-05-10T05:28:03;35.72;;;21.13;;
11703;SDS011;5908;51.354;7.458;2023-05-10T05:30:30;41.08;;;24.60;;
11703;SDS011;5908;51.354;7.458;2023-05-10T05:32:56;44.35;;;25.50;;
11703;SDS011;5908;51.354;7.458;2023-05-10T05:35:23;42.05;;;23.50;;
11703;SDS011;5908;51.354;7.458;2023-05-10T05:37:51;41.47;;;24.33;;
11703;SDS011;5908;51.354;7.458;2023-05-10T05:40:17;43.97;;;25.25;;
11703;SDS011;5908;51.354;7.458;2023-05-10T05:42:45;45.47;;;30.38;;
11703;SDS011;5908;51.354;7.458;2023-05-10T05:45:13;52.22;;;36.03;;
11703;SDS011;5908;51.354;7.458;2023-05-10T05:47:40;41.05;;;25.60;;
11703;SDS011;5908;51.354;7.458;2023-05-10T05:50:07;53.20;;;34.10;;
11703;SDS011;5908;51.354;7.458;2023-05-10T05:52:34;48.13;;;28.23;;
11703;SDS011;5908;51.354;7.458;2023-05-10T05:55:01;54.17;;;34.40;;
11703;SDS011;5908;51.354;7.458;2023-05-10T05:57:28;43.63;;;25.20;;
11703;SDS011;5908;51.354;7.458;2023-05-10T05:59:55;44.95;;;27.15;;
11703;SDS011;5908;51.354;7.458;2023-05-10T06:02:23;42.55;;;26.40;;
11703;SDS011;5908;51.354;7.458;2023-05-10T06:04:50;47.28;;;25.90;;
11703;SDS011;5908;51.354;7.458;2023-05-10T06:07:16;42.70;;;26.05;;
11703;SDS011;5908;51.354;7.458;2023-05-10T06:09:43;40.03;;;24.65;;
11703;SDS011;5908;51.354;7.458;2023-05-10T06:12:10;38.20;;;24.95;;
11703;SDS011;5908;51.354;7.458;2023-05-10T06:14:37;35.72;;;22.90;;
11703;SDS011;5908;51.354;7.458;2023-05-10T06:17:04;38.17;;;23.77;;
11703;SDS011;5908;51.354;7.458;2023-05-10T06:19:33;34.00;;;23.02;;
11703;SDS011;5908;51.354;7.458;2023-05-10T06:22:00;40.30;;;23.45;;
11703;SDS011;5908;51.354;7.458;2023-05-10T06:24:27;41.35;;;28.10;;
11703;SDS011;5908;51.354;7.458;2023-05-10T06:26:54;35.58;;;24.73;;
11703;SDS011;5908;51.354;7.458;2023-05-10T06:29:20;40.38;;;27.45;;
11703;SDS011;5908;51.354;7.458;2023-05-10T06:31:47;35.55;;;22.60;;
11703;SDS011;5908;51.354;7.458;2023-05-10T06:34:14;39.88;;;23.33;;
11703;SDS011;5908;51.354;7.458;2023-05-10T06:36:42;37.42;;;23.17;;
11703;SDS011;5908;51.354;7.458;2023-05-10T06:39:09;35.63;;;23.58;;
11703;SDS011;5908;51.354;7.458;2023-05-10T06:41:37;35.92;;;23.00;;
11703;SDS011;5908;51.354;7.458;2023-05-10T06:44:03;32.35;;;22.58;;
11703;SDS011;5908;51.354;7.458;2023-05-10T06:46:30;35.50;;;23.30;;
11703;SDS011;5908;51.354;7.458;2023-05-10T06:48:57;33.97;;;21.63;;
11703;SDS011;5908;51.354;7.458;2023-05-10T06:51:24;37.08;;;23.63;;
11703;SDS011;5908;51.354;7.458;2023-05-10T06:53:52;35.83;;;23.70;;
11703;SDS011;5908;51.354;7.458;2023-05-10T06:56:19;41.95;;;28.67;;
11703;SDS011;5908;51.354;7.458;2023-05-10T06:58:46;35.60;;;24.45;;
11703;SDS011;5908;51.354;7.458;2023-05-10T07:01:13;30.02;;;20.38;;
11703;SDS011;5908;51.354;7.458;2023-05-10T07:03:40;36.28;;;23.85;;
11703;SDS011;5908;51.354;7.458;2023-05-10T07:06:07;33.50;;;23.00;;
11703;SDS011;5908;51.354;7.458;2023-05-10T07:08:34;31.85;;;21.83;;
11703;SDS011;5908;51.354;7.458;2023-05-10T07:11:03;29.45;;;20.38;;
11703;SDS011;5908;51.354;7.458;2023-05-10T07:13:32;30.73;;;19.58;;
11703;SDS011;5908;51.354;7.458;2023-05-10T07:15:59;28.73;;;20.88;;
11703;SDS011;5908;51.354;7.458;2023-05-10T07:18:27;33.17;;;21.52;;
11703;SDS011;5908;51.354;7.458;2023-05-10T07:20:54;30.15;;;22.83;;
11703;SDS011;5908;51.354;7.458;2023-05-10T07:23:20;25.40;;;18.27;;
11703;SDS011;5908;51.354;7.458;2023-05-10T07:25:47;27.20;;;17.50;;
11703;SDS011;5908;51.354;7.458;2023-05-10T07:28:18;27.67;;;18.88;;
11703;SDS011;5908;51.354;7.458;2023-05-10T07:30:45;26.13;;;16.80;;
11703;SDS011;5908;51.354;7.458;2023-05-10T07:33:12;24.90;;;18.45;;
11703;SDS011;5908;51.354;7.458;2023-05-10T07:35:39;24.38;;;16.92;;
11703;SDS011;5908;51.354;7.458;2023-05-10T07:38:06;24.67;;;16.95;;
11703;SDS011;5908;51.354;7.458;2023-05-10T07:40:33;19.45;;;13.50;;
11703;SDS011;5908;51.354;7.458;2023-05-10T07:43:00;20.65;;;14.80;;
11703;SDS011;5908;51.354;7.458;2023-05-10T07:45:28;22.10;;;16.02;;
11703;SDS011;5908;51.354;7.458;2023-05-10T07:47:55;20.30;;;14.68;;
11703;SDS011;5908;51.354;7.458;2023-05-10T07:50:22;20.65;;;13.57;;
11703;SDS011;5908;51.354;7.458;2023-05-10T07:52:49;19.15;;;14.00;;
11703;SDS011;5908;51.354;7.458;2023-05-10T07:55:15;19.65;;;12.55;;
11703;SDS011;5908;51.354;7.458;2023-05-10T07:57:44;18.58;;;12.40;;
11703;SDS011;5908;51.354;7.458;2023-05-10T08:00:12;18.08;;;12.35;;
11703;SDS011;5908;51.354;7.458;2023-05-10T08:02:44;16.58;;;12.35;;
11703;SDS011;5908;51.354;7.458;2023-05-10T08:05:10;16.35;;;12.18;;
11703;SDS011;5908;51.354;7.458;2023-05-10T08:07:37;16.13;;;12.57;;
11703;SDS011;5908;51.354;7.458;2023-05-10T08:10:04;15.52;;;13.15;;
11703;SDS011;5908;51.354;7.458;2023-05-10T08:12:32;14.05;;;11.48;;
11703;SDS011;5908;51.354;7.458;2023-05-10T08:14:59;13.15;;;11.05;;
11703;SDS011;5908;51.354;7.458;2023-05-10T08:17:25;17.23;;;11.93;;
11703;SDS011;5908;51.354;7.458;2023-05-10T08:19:54;13.55;;;10.40;;
11703;SDS011;5908;51.354;7.458;2023-05-10T08:22:20;14.88;;;11.40;;
11703;SDS011;5908;51.354;7.458;2023-05-10T08:24:47;13.88;;;10.68;;
11703;SDS011;5908;51.354;7.458;2023-05-10T08:27:14;15.05;;;10.98;;
11703;SDS011;5908;51.354;7.458;2023-05-10T08:29:41;15.07;;;11.07;;
11703;SDS011;5908;51.354;7.458;2023-05-10T08:32:07;13.55;;;11.20;;
11703;SDS011;5908;51.354;7.458;2023-05-10T08:34:34;14.48;;;12.07;;
11703;SDS011;5908;51.354;7.458;2023-05-10T08:37:02;16.33;;;11.70;;
11703;SDS011;5908;51.354;7.458;2023-05-10T08:39:33;14.30;;;11.23;;
11703;SDS011;5908;51.354;7.458;2023-05-10T08:42:01;14.88;;;12.18;;
11703;SDS011;5908;51.354;7.458;2023-05-10T08:44:29;15.02;;;12.00;;
11703;SDS011;5908;51.354;7.458;2023-05-10T08:46:58;16.42;;;13.88;;
11703;SDS011;5908;51.354;7.458;2023-05-10T08:49:28;14.65;;;11.02;;
11703;SDS011;5908;51.354;7.458;2023-05-10T08:51:57;16.85;;;13.57;;
11703;SDS011;5908;51.354;7.458;2023-05-10T08:54:30;17.63;;;12.35;;
11703;SDS011;5908;51.354;7.458;2023-05-10T08:56:58;14.95;;;12.07;;
11703;SDS011;5908;51.354;7.458;2023-05-10T08:59:25;13.98;;;11.35;;
11703;SDS011;5908;51.354;7.458;2023-05-10T09:01:52;13.63;;;10.88;;
11703;SDS011;5908;51.354;7.458;2023-05-10T09:04:21;12.40;;;9.70;;
11703;SDS011;5908;51.354;7.458;2023-05-10T09:06:49;11.10;;;9.50;;
11703;SDS011;5908;51.354;7.458;2023-05-10T09:09:15;11.27;;;9.57;;
11703;SDS011;5908;51.354;7.458;2023-05-10T09:11:44;11.00;;;8.25;;
11703;SDS011;5908;51.354;7.458;2023-05-10T09:14:11;11.18;;;9.45;;
11703;SDS011;5908;51.354;7.458;2023-05-10T09:16:39;10.23;;;8.07;;
11703;SDS011;5908;51.354;7.458;2023-05-10T09:19:07;9.65;;;6.88;;
11703;SDS011;5908;51.354;7.458;2023-05-10T09:21:34;9.80;;;7.03;;
11703;SDS011;5908;51.354;7.458;2023-05-10T09:24:03;9.07;;;7.65;;
11703;SDS011;5908;51.354;7.458;2023-05-10T09:26:30;9.02;;;6.53;;
11703;SDS011;5908;51.354;7.458;2023-05-10T09:28:59;7.88;;;7.00;;
11703;SDS011;5908;51.354;7.458;2023-05-10T09:31:42;12.93;;;9.65;;
11703;SDS011;5908;51.354;7.458;2023-05-10T09:34:11;9.35;;;7.03;;
11703;SDS011;5908;51.354;7.458;2023-05-10T09:36:50;7.03;;;6.07;;
11703;SDS011;5908;51.354;7.458;2023-05-10T09:39:17;7.80;;;6.50;;
11703;SDS011;5908;51.354;7.458;2023-05-10T09:41:44;9.52;;;7.65;;
11703;SDS011;5908;51.354;7.458;2023-05-10T09:44:14;9.30;;;6.63;;
11703;SDS011;5908;51.354;7.458;2023-05-10T09:46:48;10.05;;;7.63;;
11703;SDS011;5908;51.354;7.458;2023-05-10T09:49:15;13.23;;;9.65;;
11703;SDS011;5908;51.354;7.458;2023-05-10T09:51:42;13.70;;;9.02;;
11703;SDS011;5908;51.354;7.458;2023-05-10T09:54:09;11.43;;;8.40;;
11703;SDS011;5908;51.354;7.458;2023-05-10T09:56:36;9.80;;;7.50;;
11703;SDS011;5908;51.354;7.458;2023-05-10T09:59:05;9.77;;;7.95;;
11703;SDS011;5908;51.354;7.458;2023-05-10T10:01:34;10.25;;;8.38;;
11703;SDS011;5908;51.354;7.458;2023-05-10T10:04:02;9.45;;;7.45;;
11703;SDS011;5908;51.354;7.458;2023-05-10T10:06:30;10.00;;;8.10;;
11703;SDS011;5908;51.354;7.458;2023-05-10T10:09:02;10.65;;;7.78;;
11703;SDS011;5908;51.354;7.458;2023-05-10T10:11:30;9.40;;;6.95;;
11703;SDS011;5908;51.354;7.458;2023-05-10T10:13:57;14.43;;;10.18;;
11703;SDS011;5908;51.354;7.458;2023-05-10T10:16:24;14.18;;;9.38;;
11703;SDS011;5908;51.354;7.458;2023-05-10T10:18:54;14.27;;;11.02;;
11703;SDS011;5908;51.354;7.458;2023-05-10T10:21:20;13.63;;;10.68;;
11703;SDS011;5908;51.354;7.458;2023-05-10T10:23:48;16.70;;;12.27;;
11703;SDS011;5908;51.354;7.458;2023-05-10T10:26:15;14.73;;;11.57;;
11703;SDS011;5908;51.354;7.458;2023-05-10T10:28:46;13.52;;;10.18;;
11703;SDS011;5908;51.354;7.458;2023-05-10T10:31:21;20.25;;;14.90;;
11703;SDS011;5908;51.354;7.458;2023-05-10T10:33:59;13.85;;;9.90;;
11703;SDS011;5908;51.354;7.458;2023-05-10T10:36:27;19.45;;;15.18;;
11703;SDS011;5908;51.354;7.458;2023-05-10T10:38:59;34.47;;;24.13;;
11703;SDS011;5908;51.354;7.458;2023-05-10T10:41:32;11.93;;;9.35;;
11703;SDS011;5908;51.354;7.458;2023-05-10T10:46:59;11.32;;;8.93;;
11703;SDS011;5908;51.354;7.458;2023-05-10T10:49:44;13.35;;;9.93;;
11703;SDS011;5908;51.354;7.458;2023-05-10T10:52:20;20.75;;;14.43;;
11703;SDS011;5908;51.354;7.458;2023-05-10T10:54:52;74.97;;;42.70;;
11703;SDS011;5908;51.354;7.458;2023-05-10T10:57:20;61.55;;;25.98;;
11703;SDS011;5908;51.354;7.458;2023-05-10T10:59:51;23.98;;;13.57;;
11703;SDS011;5908;51.354;7.458;2023-05-10T11:05:24;21.15;;;14.13;;
11703;SDS011;5908;51.354;7.458;2023-05-10T11:08:11;18.88;;;13.90;;
11703;SDS011;5908;51.354;7.458;2023-05-10T11:11:02;21.88;;;15.38;;
11703;SDS011;5908;51.354;7.458;2023-05-10T11:13:32;22.35;;;15.35;;
11703;SDS011;5908;51.354;7.458;2023-05-10T11:16:10;20.65;;;15.52;;
11703;SDS011;5908;51.354;7.458;2023-05-10T11:18:38;24.25;;;16.55;;
11703;SDS011;5908;51.354;7.458;2023-05-10T11:21:08;23.23;;;15.77;;
11703;SDS011;5908;51.354;7.458;2023-05-10T11:23:47;24.73;;;17.23;;
11703;SDS011;5908;51.354;7.458;2023-05-10T11:26:15;19.48;;;15.40;;
11703;SDS011;5908;51.354;7.458;2023-05-10T11:28:43;21.63;;;16.10;;
11703;SDS011;5908;51.354;7.458;2023-05-10T11:31:10;23.52;;;14.85;;
11703;SDS011;5908;51.354;7.458;2023-05-10T11:33:42;21.38;;;14.35;;
11703;SDS011;5908;51.354;7.458;2023-05-10T11:36:11;19.00;;;14.32;;
11703;SDS011;5908;51.354;7.458;2023-05-10T11:38:40;18.10;;;13.10;;
11703;SDS011;5908;51.354;7.458;2023-05-10T11:41:07;13.57;;;11.02;;
11703;SDS011;5908;51.354;7.458;2023-05-10T11:43:36;13.10;;;10.07;;
11703;SDS011;5908;51.354;7.458;2023-05-10T11:46:07;14.52;;;11.02;;
11703;SDS011;5908;51.354;7.458;2023-05-10T11:48:36;12.15;;;9.70;;
11703;SDS011;5908;51.354;7.458;2023-05-10T11:51:06;13.55;;;8.60;;
11703;SDS011;5908;51.354;7.458;2023-05-10T11:53:34;11.07;;;8.75;;
11703;SDS011;5908;51.354;7.458;2023-05-10T11:56:05;11.07;;;8.20;;
11703;SDS011;5908;51.354;7.458;2023-05-10T11:58:32;11.10;;;8.27;;
11703;SDS011;5908;51.354;7.458;2023-05-10T12:01:00;11.55;;;8.70;;
11703;SDS011;5908;51.354;7.458;2023-05-10T12:03:27;10.77;;;8.40;;
11703;SDS011;5908;51.354;7.458;2023-05-10T12:05:55;10.15;;;8.32;;
11703;SDS011;5908;51.354;7.458;2023-05-10T12:08:23;11.63;;;8.07;;
11703;SDS011;5908;51.354;7.458;2023-05-10T12:10:52;12.80;;;8.85;;
11703;SDS011;5908;51.354;7.458;2023-05-10T12:13:20;13.00;;;9.95;;
11703;SDS011;5908;51.354;7.458;2023-05-10T12:15:47;12.23;;;9.85;;
11703;SDS011;5908;51.354;7.458;2023-05-10T12:18:14;12.15;;;9.32;;
11703;SDS011;5908;51.354;7.458;2023-05-10T12:20:41;13.60;;;9.82;;
11703;SDS011;5908;51.354;7.458;2023-05-10T12:23:08;12.88;;;9.70;;
11703;SDS011;5908;51.354;7.458;2023-05-10T12:25:36;14.68;;;10.18;;
11703;SDS011;5908;51.354;7.458;2023-05-10T12:28:06;12.98;;;9.80;;
11703;SDS011;5908;51.354;7.458;2023-05-10T12:30:34;12.32;;;9.15;;
11703;SDS011;5908;51.354;7.458;2023-05-10T12:33:02;12.27;;;8.80;;
11703;SDS011;5908;51.354;7.458;2023-05-10T12:35:38;11.70;;;8.63;;
11703;SDS011;5908;51.354;7.458;2023-05-10T12:38:22;13.50;;;9.30;;
11703;SDS011;5908;51.354;7.458;2023-05-10T12:40:51;10.05;;;7.95;;
11703;SDS011;5908;51.354;7.458;2023-05-10T12:43:19;10.23;;;7.80;;
11703;SDS011;5908;51.354;7.458;2023-05-10T12:45:46;10.20;;;8.23;;
11703;SDS011;5908;51.354;7.458;2023-05-10T12:48:13;13.32;;;9.25;;
11703;SDS011;5908;51.354;7.458;2023-05-10T12:50:40;9.05;;;7.50;;
11703;SDS011;5908;51.354;7.458;2023-05-10T12:53:07;10.30;;;8.70;;
11703;SDS011;5908;51.354;7.458;2023-05-10T12:55:34;10.75;;;8.35;;
11703;SDS011;5908;51.354;7.458;2023-05-10T12:58:01;9.52;;;7.97;;
11703;SDS011;5908;51.354;7.458;2023-05-10T13:00:29;11.70;;;8.38;;
11703;SDS011;5908;51.354;7.458;2023-05-10T13:02:56;12.68;;;8.82;;
11703;SDS011;5908;51.354;7.458;2023-05-10T13:05:22;11.95;;;8.70;;
11703;SDS011;5908;51.354;7.458;2023-05-10T13:07:49;30.55;;;10.30;;
11703;SDS011;5908;51.354;7.458;2023-05-10T13:10:16;10.80;;;8.20;;
11703;SDS011;5908;51.354;7.458;2023-05-10T13:12:43;10.90;;;8.00;;
11703;SDS011;5908;51.354;7.458;2023-05-10T13:15:10;14.50;;;9.52;;
11703;SDS011;5908;51.354;7.458;2023-05-10T13:17:38;12.20;;;9.30;;
11703;SDS011;5908;51.354;7.458;2023-05-10T13:20:06;13.48;;;9.65;;
11703;SDS011;5908;51.354;7.458;2023-05-10T13:22:34;12.05;;;9.63;;
11703;SDS011;5908;51.354;7.458;2023-05-10T13:25:01;13.63;;;10.75;;
11703;SDS011;5908;51.354;7.458;2023-05-10T13:27:27;15.95;;;11.90;;
11703;SDS011;5908;51.354;7.458;2023-05-10T13:29:54;20.48;;;16.63;;
11703;SDS011;5908;51.354;7.458;2023-05-10T13:32:21;19.95;;;15.15;;
11703;SDS011;5908;51.354;7.458;2023-05-10T13:34:50;19.75;;;16.85;;
11703;SDS011;5908;51.354;7.458;2023-05-10T13:37:16;14.77;;;10.25;;
11703;SDS011;5908;51.354;7.458;2023-05-10T13:39:43;15.20;;;12.10;;
11703;SDS011;5908;51.354;7.458;2023-05-10T13:42:10;12.77;;;10.20;;
11703;SDS011;5908;51.354;7.458;2023-05-10T13:44:37;14.30;;;11.23;;
11703;SDS011;5908;51.354;7.458;2023-05-10T13:47:04;14.27;;;11.25;;
11703;SDS011;5908;51.354;7.458;2023-05-10T13:49:31;14.45;;;11.20;;
11703;SDS011;5908;51.354;7.458;2023-05-10T13:52:00;14.63;;;11.20;;
11703;SDS011;5908;51.354;7.458;2023-05-10T13:54:30;18.90;;;14.25;;
11703;SDS011;5908;51.354;7.458;2023-05-10T13:56:57;19.17;;;13.70;;
11703;SDS011;5908;51.354;7.458;2023-05-10T13:59:25;25.52;;;20.40;;
11703;SDS011;5908;51.354;7.458;2023-05-10T14:01:51;15.32;;;12.20;;
11703;SDS011;5908;51.354;7.458;2023-05-10T14:04:18;12.85;;;9.98;;
11703;SDS011;5908;51.354;7.458;2023-05-10T14:06:45;10.63;;;9.40;;
11703;SDS011;5908;51.354;7.458;2023-05-10T14:09:13;16.15;;;10.85;;
11703;SDS011;5908;51.354;7.458;2023-05-10T14:11:40;13.32;;;10.25;;
11703;SDS011;5908;51.354;7.458;2023-05-10T14:14:08;14.70;;;11.25;;
11703;SDS011;5908;51.354;7.458;2023-05-10T14:16:35;12.40;;;10.27;;
11703;SDS011;5908;51.354;7.458;2023-05-10T14:19:01;10.75;;;8.98;;
11703;SDS011;5908;51.354;7.458;2023-05-10T14:21:28;12.73;;;10.63;;
11703;SDS011;5908;51.354;7.458;2023-05-10T14:23:55;14.63;;;10.88;;
11703;SDS011;5908;51.354;7.458;2023-05-10T14:26:23;22.92;;;19.85;;
11703;SDS011;5908;51.354;7.458;2023-05-10T14:28:51;18.92;;;16.88;;
11703;SDS011;5908;51.354;7.458;2023-05-10T14:31:18;19.60;;;14.50;;
11703;SDS011;5908;51.354;7.458;2023-05-10T14:33:45;14.63;;;12.45;;
11703;SDS011;5908;51.354;7.458;2023-05-10T14:36:12;12.35;;;10.25;;
11703;SDS011;5908;51.354;7.458;2023-05-10T14:38:39;12.70;;;10.50;;
11703;SDS011;5908;51.354;7.458;2023-05-10T14:41:06;11.50;;;10.30;;
11703;SDS011;5908;51.354;7.458;2023-05-10T14:43:34;14.07;;;11.07;;
11703;SDS011;5908;51.354;7.458;2023-05-10T14:46:01;11.02;;;9.15;;
11703;SDS011;5908;51.354;7.458;2023-05-10T14:48:28;14.15;;;11.07;;
11703;SDS011;5908;51.354;7.458;2023-05-10T14:50:55;20.38;;;17.25;;
11703;SDS011;5908;51.354;7.458;2023-05-10T14:53:22;27.83;;;24.92;;
11703;SDS011;5908;51.354;7.458;2023-05-10T14:55:48;16.95;;;14.63;;
11703;SDS011;5908;51.354;7.458;2023-05-10T14:58:15;11.90;;;10.57;;